Time;durP1;ratioP1;P1;durP2;ratioP2;P2;SDS_P1;SDS_P2;PMS_P1;PMS_P2;Temp;Humidity;BMP_temperature;BMP_pressure;BME280_temperature;BME280_humidity;BME280_pressure;Samples;Min_cycle;Max_cycle;Signal;HPM_P1;HPM_P2
2023/10/07 00:01:24;;;;;;;3.27;2.17;;;22.60;99.90;;;;;;4995329;28;20454;-62
2023/10/07 00:03:52;;;;;;;2.30;2.10;;;22.50;99.90;;;;;;4999593;28;20471;-63
2023/10/07 00:06:19;;;;;;;2.17;1.63;;;22.50;99.90;;;;;;4999406;28;20459;-64
2023/10/07 00:08:45;;;;;;;3.10;2.07;;;22.50;99.90;;;;;;4999664;28;20454;-62
2023/10/07 00:11:16;;;;;;;2.53;2.03;;;22.50;99.90;;;;;;4998383;28;20473;-64
2023/10/07 00:13:43;;;;;;;3.93;2.30;;;22.50;99.90;;;;;;4996814;28;20485;-64
2023/10/07 00:16:17;;;;;;;2.20;1.87;;;22.40;99.90;;;;;;4998413;28;20458;-62
2023/10/07 00:18:45;;;;;;;2.47;2.10;;;22.50;99.90;;;;;;4999410;28;21193;-64
2023/10/07 00:21:15;;;;;;;2.50;1.93;;;22.40;99.90;;;;;;5001211;28;20462;-61
2023/10/07 00:23:42;;;;;;;2.97;2.23;;;22.40;99.90;;;;;;4997936;28;20454;-62
2023/10/07 00:26:10;;;;;;;2.77;2.43;;;22.40;99.90;;;;;;4998073;28;21038;-62
2023/10/07 00:28:38;;;;;;;2.93;2.20;;;22.40;99.90;;;;;;4997697;28;20469;-63
2023/10/07 00:31:12;;;;;;;2.20;1.70;;;22.50;99.90;;;;;;4999857;28;20485;-65
2023/10/07 00:33:50;;;;;;;3.07;2.10;;;22.40;99.90;;;;;;4999469;28;20458;-65
2023/10/07 00:36:34;;;;;;;3.00;2.20;;;22.30;99.90;;;;;;4999804;28;20540;-64
2023/10/07 00:39:07;;;;;;;1.73;1.47;;;22.50;99.90;;;;;;5003778;28;20542;-65
2023/10/07 00:41:46;;;;;;;2.43;2.07;;;22.30;99.90;;;;;;5001354;28;20567;-61
2023/10/07 00:44:21;;;;;;;2.20;1.80;;;22.30;99.90;;;;;;5004249;28;21038;-64
2023/10/07 00:47:12;;;;;;;2.70;2.13;;;22.30;99.90;;;;;;5004466;28;20519;-64
2023/10/07 00:49:41;;;;;;;2.33;2.13;;;22.30;99.90;;;;;;5003400;28;20455;-64
2023/10/07 00:52:11;;;;;;;2.33;2.13;;;22.30;99.90;;;;;;5003493;28;20451;-61
2023/10/07 00:54:49;;;;;;;1.90;1.73;;;22.30;99.90;;;;;;5005337;28;20449;-63
2023/10/07 00:57:24;;;;;;;4.53;2.67;;;22.30;99.90;;;;;;4999337;28;20544;-64
2023/10/07 00:59:53;;;;;;;2.83;2.13;;;22.30;99.90;;;;;;5004248;28;20458;-65
2023/10/07 01:02:29;;;;;;;2.27;1.83;;;22.30;99.90;;;;;;5000144;28;20562;-65
2023/10/07 01:05:06;;;;;;;2.00;1.43;;;22.30;99.90;;;;;;4998904;28;20475;-61
2023/10/07 01:07:34;;;;;;;2.87;2.13;;;22.30;99.90;;;;;;5002537;28;20542;-63
2023/10/07 01:10:12;;;;;;;2.63;2.03;;;22.30;99.90;;;;;;5004184;28;21436;-64
2023/10/07 01:12:42;;;;;;;2.93;1.77;;;22.20;99.90;;;;;;5002788;28;22613;-63
2023/10/07 01:15:23;;;;;;;2.93;2.17;;;22.20;99.90;;;;;;4998685;28;20466;-61
2023/10/07 01:17:56;;;;;;;2.13;1.80;;;22.20;99.90;;;;;;4998733;28;20466;-65
2023/10/07 01:20:34;;;;;;;2.70;1.87;;;22.20;99.90;;;;;;5001743;28;20566;-66
2023/10/07 01:23:04;;;;;;;2.13;1.93;;;22.20;99.90;;;;;;4997029;28;20539;-63
2023/10/07 01:25:31;;;;;;;2.60;1.83;;;22.10;99.90;;;;;;4999234;28;20485;-63
2023/10/07 01:28:01;;;;;;;2.37;2.07;;;22.20;99.90;;;;;;5001914;28;20556;-60
2023/10/07 01:30:29;;;;;;;3.47;1.90;;;22.20;99.90;;;;;;4999867;28;20463;-61
2023/10/07 01:33:02;;;;;;;2.13;1.63;;;22.20;99.90;;;;;;5002238;28;20510;-64
2023/10/07 01:35:32;;;;;;;2.10;1.70;;;22.20;99.90;;;;;;5000274;28;20507;-62
2023/10/07 01:38:07;;;;;;;2.77;2.37;;;22.20;99.90;;;;;;4998813;28;20455;-64
2023/10/07 01:40:55;;;;;;;2.10;1.67;;;22.20;99.90;;;;;;4999454;28;20462;-62
2023/10/07 01:43:23;;;;;;;1.80;1.53;;;22.20;99.90;;;;;;5001834;28;20557;-63
2023/10/07 01:45:52;;;;;;;2.90;1.87;;;22.20;99.90;;;;;;5000479;28;21907;-64
2023/10/07 01:48:20;;;;;;;2.80;2.47;;;22.20;99.90;;;;;;4999583;28;21096;-63
2023/10/07 01:50:47;;;;;;;2.30;2.10;;;22.10;99.90;;;;;;5001247;28;20477;-61
2023/10/07 01:53:15;;;;;;;2.10;1.90;;;22.10;99.90;;;;;;4998645;28;20454;-65
2023/10/07 01:55:43;;;;;;;1.87;1.77;;;22.10;99.90;;;;;;5000604;28;20500;-65
2023/10/07 01:58:13;;;;;;;2.20;1.70;;;22.10;99.90;;;;;;4997941;28;20539;-64
2023/10/07 02:00:44;;;;;;;2.70;2.07;;;22.10;99.90;;;;;;4999275;28;20694;-65
2023/10/07 02:03:14;;;;;;;2.20;1.93;;;22.10;99.90;;;;;;4997938;28;20894;-64
2023/10/07 02:05:46;;;;;;;1.93;1.53;;;22.10;99.90;;;;;;5001944;28;20613;-63
2023/10/07 02:08:14;;;;;;;1.80;1.60;;;22.10;99.90;;;;;;4999790;28;20470;-62
2023/10/07 02:10:41;;;;;;;2.17;1.97;;;22.10;99.90;;;;;;5001355;28;20549;-60
2023/10/07 02:13:14;;;;;;;3.00;2.10;;;22.10;99.90;;;;;;4998963;28;20455;-64
2023/10/07 02:15:42;;;;;;;1.73;1.40;;;22.10;99.90;;;;;;5002538;28;20608;-62
2023/10/07 02:18:15;;;;;;;2.40;1.70;;;22.10;99.90;;;;;;4996653;28;20463;-62
2023/10/07 02:20:49;;;;;;;2.03;1.73;;;22.10;99.90;;;;;;5000295;28;20466;-61
2023/10/07 02:23:26;;;;;;;2.53;1.60;;;22.00;99.90;;;;;;5000074;28;20467;-62
2023/10/07 02:25:57;;;;;;;2.33;1.97;;;22.00;99.90;;;;;;5000979;28;20494;-64
2023/10/07 02:28:29;;;;;;;2.00;1.80;;;22.00;99.90;;;;;;5000487;28;20529;-60
2023/10/07 02:31:01;;;;;;;2.00;1.80;;;22.00;99.90;;;;;;4997726;28;20204;-62
2023/10/07 02:33:28;;;;;;;1.80;1.50;;;22.00;99.90;;;;;;5000179;28;20458;-62
2023/10/07 02:35:57;;;;;;;1.97;1.50;;;22.00;99.90;;;;;;5000946;28;20493;-61
2023/10/07 02:38:41;;;;;;;2.17;1.90;;;22.00;99.90;;;;;;5000981;28;21048;-64
2023/10/07 02:41:16;;;;;;;2.37;1.80;;;22.00;99.90;;;;;;5001280;28;20459;-64
2023/10/07 02:43:48;;;;;;;2.33;2.00;;;22.00;99.90;;;;;;5003118;28;20545;-64
2023/10/07 02:46:28;;;;;;;2.37;2.00;;;22.00;99.90;;;;;;5000401;28;20620;-60
2023/10/07 02:49:01;;;;;;;1.70;1.60;;;22.00;99.90;;;;;;5002176;28;20467;-64
2023/10/07 02:51:28;;;;;;;1.53;1.43;;;22.00;99.90;;;;;;5003264;28;20538;-61
2023/10/07 02:54:00;;;;;;;2.80;1.60;;;22.00;99.90;;;;;;5002681;28;20974;-61
2023/10/07 02:56:30;;;;;;;1.60;1.50;;;22.00;99.90;;;;;;5003737;28;20462;-63
2023/10/07 02:59:00;;;;;;;2.30;1.87;;;21.90;99.90;;;;;;5001636;28;20524;-63
2023/10/07 03:01:28;;;;;;;2.10;1.40;;;21.90;99.90;;;;;;5004143;28;20463;-64
2023/10/07 03:04:00;;;;;;;1.60;1.40;;;21.90;99.90;;;;;;4998725;28;20735;-63
2023/10/07 03:06:28;;;;;;;2.90;2.20;;;21.90;99.90;;;;;;5002610;28;20565;-62
2023/10/07 03:09:01;;;;;;;1.73;1.53;;;21.90;99.90;;;;;;5004843;28;20508;-63
2023/10/07 03:11:40;;;;;;;1.93;1.80;;;22.00;99.90;;;;;;5001440;28;20458;-61
2023/10/07 03:14:13;;;;;;;2.80;1.90;;;21.90;99.90;;;;;;5000093;28;20457;-62
2023/10/07 03:16:46;;;;;;;2.10;1.83;;;21.90;99.90;;;;;;5000701;28;20455;-64
2023/10/07 03:19:30;;;;;;;2.20;2.00;;;21.90;99.90;;;;;;5002146;28;20454;-64
2023/10/07 03:22:09;;;;;;;2.17;1.60;;;21.90;99.90;;;;;;5000985;28;20462;-63
2023/10/07 03:24:42;;;;;;;1.85;1.60;;;21.90;99.90;;;;;;4998576;28;20568;-63
2023/10/07 03:27:13;;;;;;;2.40;1.57;;;21.90;99.90;;;;;;4999377;28;20711;-64
2023/10/07 03:30:00;;;;;;;1.83;1.30;;;21.90;99.90;;;;;;5001131;28;20951;-61
2023/10/07 03:32:32;;;;;;;2.50;1.77;;;21.90;99.90;;;;;;5000976;28;20593;-59
2023/10/07 03:35:00;;;;;;;1.53;1.37;;;21.90;99.90;;;;;;4998211;28;20951;-64
2023/10/07 03:37:28;;;;;;;1.57;1.37;;;21.80;99.90;;;;;;5001624;28;20558;-64
2023/10/07 03:40:18;;;;;;;2.40;2.20;;;21.80;99.90;;;;;;5001342;28;20521;-62
2023/10/07 03:42:46;;;;;;;2.27;2.07;;;21.80;99.90;;;;;;4996614;28;22473;-64
2023/10/07 03:45:15;;;;;;;2.40;1.90;;;21.80;99.90;;;;;;5000071;28;20469;-62
2023/10/07 03:47:46;;;;;;;2.07;1.70;;;21.80;99.90;;;;;;5000236;28;20542;-62
2023/10/07 03:50:29;;;;;;;2.20;1.60;;;21.90;99.90;;;;;;5000512;28;20448;-63
2023/10/07 03:52:58;;;;;;;3.03;1.77;;;21.80;99.90;;;;;;4998987;28;20496;-62
2023/10/07 03:55:27;;;;;;;2.03;1.83;;;21.80;99.90;;;;;;4998546;28;20574;-62
2023/10/07 03:57:54;;;;;;;1.60;1.33;;;21.80;99.90;;;;;;4999923;28;20466;-60
2023/10/07 04:00:28;;;;;;;2.00;1.80;;;21.80;99.90;;;;;;4996812;28;20458;-60
2023/10/07 04:03:01;;;;;;;1.73;1.50;;;21.80;99.90;;;;;;4999854;28;20457;-63
2023/10/07 04:05:32;;;;;;;2.60;2.20;;;21.80;99.90;;;;;;4999254;28;21381;-64
2023/10/07 04:08:00;;;;;;;1.80;1.63;;;21.80;99.90;;;;;;5000113;28;20468;-62
2023/10/07 04:10:36;;;;;;;1.70;1.48;;;21.80;99.90;;;;;;4998632;28;20548;-64
2023/10/07 04:13:07;;;;;;;1.50;1.40;;;21.80;99.90;;;;;;4997507;28;20948;-61
2023/10/07 04:15:44;;;;;;;1.50;1.40;;;21.80;99.90;;;;;;4999571;28;20655;-63
2023/10/07 04:18:16;;;;;;;1.80;1.70;;;21.70;99.90;;;;;;5000947;28;21078;-62
2023/10/07 04:20:51;;;;;;;1.80;1.43;;;21.70;99.90;;;;;;5002318;28;22510;-63
2023/10/07 04:23:21;;;;;;;1.93;1.63;;;21.80;99.90;;;;;;5002162;28;21032;-63
2023/10/07 04:25:48;;;;;;;2.20;1.63;;;21.70;99.90;;;;;;5003598;28;21865;-62
2023/10/07 04:28:15;;;;;;;2.10;1.50;;;21.70;99.90;;;;;;5002659;28;21012;-63
2023/10/07 04:30:51;;;;;;;2.07;1.87;;;21.70;99.90;;;;;;5005103;28;21280;-63
2023/10/07 04:33:25;;;;;;;2.63;1.43;;;21.70;99.90;;;;;;5002345;28;20494;-62
2023/10/07 04:36:01;;;;;;;1.80;1.60;;;21.70;99.90;;;;;;5003417;28;20720;-60
2023/10/07 04:38:52;;;;;;;2.30;2.00;;;21.70;99.90;;;;;;5002856;28;20487;-61
2023/10/07 04:41:31;;;;;;;2.07;1.80;;;21.70;99.90;;;;;;5003215;28;20461;-63
2023/10/07 04:44:09;;;;;;;1.70;1.47;;;21.70;99.90;;;;;;5004004;28;20450;-64
2023/10/07 04:46:45;;;;;;;3.33;1.83;;;21.70;99.90;;;;;;5005210;28;20515;-63
2023/10/07 04:49:14;;;;;;;1.87;1.57;;;21.70;99.90;;;;;;4999238;28;20457;-63
2023/10/07 04:51:55;;;;;;;1.77;1.63;;;21.70;99.90;;;;;;5004243;28;20452;-61
2023/10/07 04:54:20;;;;;;;1.77;1.43;;;21.70;99.90;;;;;;5004059;28;20453;-63
2023/10/07 04:56:53;;;;;;;1.70;1.60;;;21.70;99.90;;;;;;5003444;28;20966;-62
2023/10/07 04:59:21;;;;;;;1.63;1.30;;;21.70;99.90;;;;;;5005633;28;20462;-64
2023/10/07 05:01:56;;;;;;;1.60;1.40;;;21.70;99.90;;;;;;5004804;28;20493;-60
2023/10/07 05:04:24;;;;;;;1.73;1.63;;;21.60;99.90;;;;;;5002734;28;20466;-64
2023/10/07 05:06:53;;;;;;;1.80;1.30;;;21.60;99.90;;;;;;5001836;28;20628;-61
2023/10/07 05:09:21;;;;;;;2.15;1.67;;;21.60;99.90;;;;;;5004189;28;21091;-64
2023/10/07 05:11:48;;;;;;;2.00;1.50;;;21.60;99.90;;;;;;5008492;28;20198;-64
2023/10/07 05:14:17;;;;;;;1.80;1.60;;;21.60;99.90;;;;;;5002601;28;20460;-61
2023/10/07 05:16:46;;;;;;;1.70;1.60;;;21.60;99.90;;;;;;5002735;28;20211;-62
2023/10/07 05:19:19;;;;;;;2.63;1.70;;;21.60;99.90;;;;;;5005109;28;21187;-61
2023/10/07 05:21:58;;;;;;;2.17;1.90;;;21.60;99.90;;;;;;5006192;28;20534;-62
2023/10/07 05:24:28;;;;;;;2.28;1.58;;;21.60;99.90;;;;;;4999867;28;20588;-62
2023/10/07 05:26:55;;;;;;;2.43;1.90;;;21.60;99.90;;;;;;4999283;28;20231;-63
2023/10/07 05:29:22;;;;;;;2.30;1.70;;;21.60;99.90;;;;;;5002329;28;20456;-63
2023/10/07 05:31:49;;;;;;;2.10;1.87;;;21.60;99.90;;;;;;5003721;28;21067;-63
2023/10/07 05:34:18;;;;;;;2.40;1.40;;;21.60;99.90;;;;;;5000221;28;20906;-64
2023/10/07 05:36:46;;;;;;;2.13;1.90;;;21.60;99.90;;;;;;4999374;28;20462;-63
2023/10/07 05:39:15;;;;;;;2.42;1.67;;;21.60;99.90;;;;;;4996257;28;20473;-64
2023/10/07 05:41:41;;;;;;;2.90;1.80;;;21.70;99.90;;;;;;5000949;28;20189;-64
2023/10/07 05:44:09;;;;;;;2.77;1.90;;;21.70;99.90;;;;;;4999242;28;20466;-61
2023/10/07 05:46:36;;;;;;;1.67;1.50;;;21.70;99.90;;;;;;5000515;28;22537;-64
2023/10/07 05:49:04;;;;;;;2.33;1.30;;;21.80;99.90;;;;;;4996058;28;20464;-62
2023/10/07 05:51:34;;;;;;;1.97;1.77;;;21.70;99.90;;;;;;5000663;28;20834;-63
2023/10/07 05:54:01;;;;;;;2.07;1.70;;;21.70;99.90;;;;;;4999016;28;20947;-60
2023/10/07 05:56:28;;;;;;;2.20;1.97;;;21.70;99.90;;;;;;4996698;28;20484;-64
2023/10/07 05:58:55;;;;;;;2.23;1.63;;;21.70;99.90;;;;;;4998977;28;20541;-62
2023/10/07 06:01:22;;;;;;;1.93;1.77;;;21.70;99.90;;;;;;4999610;28;20467;-64
2023/10/07 06:03:51;;;;;;;2.13;1.87;;;21.70;99.90;;;;;;4999160;28;20466;-62
2023/10/07 06:06:20;;;;;;;1.70;1.50;;;21.70;99.90;;;;;;4995850;28;20847;-60
2023/10/07 06:08:48;;;;;;;2.37;2.00;;;21.80;99.90;;;;;;4998412;28;20461;-62
2023/10/07 06:11:16;;;;;;;1.60;1.23;;;21.80;99.90;;;;;;5000576;28;26414;-60
2023/10/07 06:13:44;;;;;;;2.10;1.90;;;21.80;99.90;;;;;;4997496;28;20474;-61
2023/10/07 06:16:13;;;;;;;1.67;1.50;;;21.80;99.90;;;;;;4997632;28;21270;-62
2023/10/07 06:18:40;;;;;;;1.97;1.73;;;21.80;99.90;;;;;;5000607;28;20464;-61
2023/10/07 06:21:19;;;;;;;1.67;1.40;;;21.80;99.90;;;;;;4999151;28;20561;-61
2023/10/07 06:23:48;;;;;;;1.90;1.80;;;21.80;99.90;;;;;;5000240;28;20455;-59
2023/10/07 06:26:16;;;;;;;2.40;1.57;;;21.80;99.90;;;;;;4998482;28;20492;-62
2023/10/07 06:28:44;;;;;;;1.60;1.50;;;21.80;99.90;;;;;;4999939;28;20471;-63
2023/10/07 06:31:13;;;;;;;2.30;1.97;;;21.90;99.90;;;;;;4998632;28;20503;-62
2023/10/07 06:33:40;;;;;;;2.37;2.17;;;21.90;99.90;;;;;;4997260;28;20538;-62
2023/10/07 06:36:10;;;;;;;2.30;1.80;;;21.90;99.90;;;;;;4999662;28;20564;-59
2023/10/07 06:38:38;;;;;;;1.87;1.67;;;21.90;99.90;;;;;;5000984;28;20466;-61
2023/10/07 06:41:10;;;;;;;1.90;1.47;;;21.90;99.90;;;;;;5000837;28;20458;-61
2023/10/07 06:43:40;;;;;;;1.93;1.60;;;21.90;99.90;;;;;;4999521;28;20462;-62
2023/10/07 06:46:10;;;;;;;2.00;1.80;;;21.90;99.90;;;;;;5000186;28;20465;-63
2023/10/07 06:48:38;;;;;;;2.33;1.80;;;21.90;99.90;;;;;;5001898;28;20471;-62
2023/10/07 06:51:06;;;;;;;2.13;1.93;;;21.90;99.90;;;;;;4999005;28;20468;-64
2023/10/07 06:53:35;;;;;;;1.93;1.80;;;21.90;99.90;;;;;;4997429;28;20755;-65
2023/10/07 06:56:02;;;;;;;1.67;1.57;;;21.90;99.90;;;;;;4997120;28;20459;-61
2023/10/07 06:58:30;;;;;;;2.07;1.80;;;21.90;99.90;;;;;;5000860;28;20458;-63
2023/10/07 07:01:09;;;;;;;2.27;2.07;;;21.90;99.90;;;;;;4999927;28;20497;-63
2023/10/07 07:03:36;;;;;;;2.17;1.80;;;21.90;99.90;;;;;;4998441;28;20463;-63
2023/10/07 07:06:04;;;;;;;1.77;1.60;;;21.90;99.90;;;;;;5000581;28;20463;-63
2023/10/07 07:08:34;;;;;;;2.20;1.80;;;21.90;99.90;;;;;;5003083;28;20457;-63
2023/10/07 07:11:02;;;;;;;2.57;2.20;;;21.90;99.90;;;;;;4998519;28;20963;-62
2023/10/07 07:13:34;;;;;;;2.30;1.90;;;22.00;99.90;;;;;;5000763;28;20460;-64
2023/10/07 07:16:06;;;;;;;2.40;1.87;;;21.90;99.90;;;;;;4994474;28;20459;-60
2023/10/07 07:18:33;;;;;;;2.07;1.87;;;21.90;99.90;;;;;;4997825;28;20605;-62
2023/10/07 07:21:13;;;;;;;2.00;1.70;;;21.90;99.90;;;;;;4998127;28;22084;-63
2023/10/07 07:23:45;;;;;;;4.53;3.67;;;22.00;99.90;;;;;;4999563;28;20478;-63
2023/10/07 07:26:13;;;;;;;3.93;3.03;;;21.90;99.90;;;;;;4998614;28;21371;-61
2023/10/07 07:28:43;;;;;;;3.43;3.10;;;21.90;99.90;;;;;;4994591;28;20624;-63
2023/10/07 07:31:11;;;;;;;7.00;3.50;;;22.00;99.90;;;;;;4999603;28;20558;-64
2023/10/07 07:33:39;;;;;;;6.40;3.57;;;21.90;99.90;;;;;;5000223;28;21095;-61
2023/10/07 07:36:24;;;;;;;3.77;3.33;;;21.90;99.90;;;;;;5002288;28;20455;-62
2023/10/07 07:38:53;;;;;;;6.30;3.50;;;21.90;99.90;;;;;;5001429;28;20469;-63
2023/10/07 07:41:34;;;;;;;5.50;3.73;;;21.90;99.90;;;;;;4998226;28;20483;-63
2023/10/07 07:44:10;;;;;;;4.77;3.80;;;22.00;99.90;;;;;;4997692;28;20455;-64
2023/10/07 07:46:51;;;;;;;4.07;3.30;;;21.90;99.90;;;;;;5001075;28;20644;-63
2023/10/07 07:49:19;;;;;;;3.30;2.80;;;22.00;99.90;;;;;;5003124;28;20456;-61
2023/10/07 07:51:51;;;;;;;6.43;3.53;;;21.90;99.90;;;;;;5006786;28;20465;-62
2023/10/07 07:54:18;;;;;;;10.47;4.17;;;22.00;99.90;;;;;;5002326;28;20458;-59
2023/10/07 07:56:48;;;;;;;3.70;3.40;;;22.00;99.90;;;;;;5005421;28;20458;-55
2023/10/07 07:59:17;;;;;;;4.00;3.30;;;22.00;99.90;;;;;;5002821;28;21753;-60
2023/10/07 08:01:46;;;;;;;4.60;3.40;;;22.00;99.90;;;;;;5001223;28;20490;-59
2023/10/07 08:04:19;;;;;;;3.70;3.40;;;22.00;99.90;;;;;;5003816;28;20529;-59
2023/10/07 08:06:47;;;;;;;6.20;3.27;;;22.00;99.90;;;;;;5003741;28;21070;-59
2023/10/07 08:09:19;;;;;;;4.83;3.47;;;22.00;99.90;;;;;;5003867;28;20477;-60
2023/10/07 08:11:46;;;;;;;3.97;3.57;;;22.00;99.90;;;;;;5003444;28;20458;-61
2023/10/07 08:14:17;;;;;;;11.93;4.30;;;22.10;99.90;;;;;;5003271;28;20546;-63
2023/10/07 08:16:53;;;;;;;4.70;4.30;;;22.10;99.90;;;;;;5004916;28;20466;-61
2023/10/07 08:19:23;;;;;;;4.63;3.57;;;22.10;99.90;;;;;;5005068;28;20457;-61
2023/10/07 08:21:52;;;;;;;3.93;3.63;;;22.10;99.90;;;;;;5000670;28;20478;-59
2023/10/07 08:24:20;;;;;;;7.20;3.90;;;22.10;99.90;;;;;;5004620;28;20522;-57
2023/10/07 08:26:48;;;;;;;3.93;3.60;;;22.10;99.90;;;;;;5003927;28;20473;-58
2023/10/07 08:29:31;;;;;;;6.63;4.20;;;22.10;99.90;;;;;;5004916;28;20627;-59
2023/10/07 08:31:59;;;;;;;5.50;3.23;;;22.10;99.90;;;;;;5003123;28;20470;-59
2023/10/07 08:34:33;;;;;;;5.83;3.33;;;22.10;99.90;;;;;;5002837;28;20454;-64
2023/10/07 08:37:02;;;;;;;9.37;4.47;;;22.10;99.90;;;;;;5005743;28;20583;-61
2023/10/07 08:39:44;;;;;;;3.97;3.67;;;22.10;99.90;;;;;;5004874;28;20466;-61
2023/10/07 08:42:17;;;;;;;7.60;3.77;;;22.10;99.90;;;;;;5002625;28;20509;-58
2023/10/07 08:44:51;;;;;;;5.17;3.47;;;22.10;99.90;;;;;;5004912;28;20458;-61
2023/10/07 08:47:20;;;;;;;5.20;4.70;;;22.00;99.90;;;;;;5003687;28;20484;-59
2023/10/07 08:49:48;;;;;;;5.13;3.83;;;22.10;99.90;;;;;;5003592;28;20466;-60
2023/10/07 08:52:18;;;;;;;4.50;4.10;;;22.10;99.90;;;;;;5002687;28;20464;-59
2023/10/07 08:54:47;;;;;;;5.80;4.30;;;22.00;99.90;;;;;;5004350;28;20455;-58
2023/10/07 08:57:22;;;;;;;5.33;3.47;;;22.10;99.90;;;;;;5001565;28;20459;-59
2023/10/07 08:59:52;;;;;;;4.70;4.30;;;22.10;99.90;;;;;;4998677;28;20463;-58
2023/10/07 09:02:26;;;;;;;3.77;3.47;;;22.10;99.90;;;;;;5001100;28;20458;-59
2023/10/07 09:04:53;;;;;;;5.60;3.73;;;22.10;99.90;;;;;;4995175;28;21312;-60
2023/10/07 09:07:20;;;;;;;3.97;3.50;;;22.10;99.90;;;;;;5000783;28;20557;-59
2023/10/07 09:09:48;;;;;;;4.43;3.87;;;22.10;99.90;;;;;;5004634;28;20461;-59
2023/10/07 09:12:15;;;;;;;4.47;4.07;;;22.00;99.90;;;;;;5000036;28;20459;-59
2023/10/07 09:14:47;;;;;;;4.57;3.97;;;22.10;99.90;;;;;;5003468;28;21026;-61
2023/10/07 09:17:15;;;;;;;3.80;3.50;;;22.00;99.90;;;;;;4999051;28;21252;-59
2023/10/07 09:19:47;;;;;;;4.20;3.63;;;22.10;99.90;;;;;;5001956;28;20468;-61
2023/10/07 09:22:17;;;;;;;5.10;4.63;;;22.10;99.90;;;;;;4998041;28;20954;-57
2023/10/07 09:24:44;;;;;;;4.07;3.77;;;22.10;99.90;;;;;;5002763;28;20894;-61
2023/10/07 09:27:13;;;;;;;5.13;4.07;;;22.10;99.90;;;;;;5003580;28;20482;-59
2023/10/07 09:29:44;;;;;;;4.33;3.93;;;22.10;99.90;;;;;;4999130;28;20451;-60
2023/10/07 09:32:17;;;;;;;4.40;4.00;;;22.00;99.90;;;;;;4999112;28;21093;-61
2023/10/07 09:34:47;;;;;;;4.27;3.90;;;22.10;99.90;;;;;;4999818;28;20483;-59
2023/10/07 09:37:18;;;;;;;5.60;4.10;;;22.10;99.90;;;;;;4995262;28;20470;-60
2023/10/07 09:39:45;;;;;;;3.97;3.40;;;22.10;99.90;;;;;;4998163;28;20491;-60
2023/10/07 09:42:36;;;;;;;6.87;4.80;;;22.10;99.90;;;;;;4997917;28;20448;-60
2023/10/07 09:45:15;;;;;;;4.20;3.60;;;22.00;99.90;;;;;;5003787;28;20456;-60
2023/10/07 09:47:44;;;;;;;4.40;4.00;;;22.10;99.90;;;;;;5001977;28;20466;-58
2023/10/07 09:50:19;;;;;;;4.43;3.70;;;22.10;99.90;;;;;;4998477;28;20486;-59
2023/10/07 09:52:52;;;;;;;3.90;3.60;;;22.00;99.90;;;;;;5002892;28;20509;-61
2023/10/07 09:55:47;;;;;;;4.07;3.73;;;22.10;99.90;;;;;;4998225;28;20481;-58
2023/10/07 09:58:36;;;;;;;4.40;4.07;;;22.10;99.90;;;;;;4998197;28;20470;-61
2023/10/07 10:01:28;;;;;;;4.27;3.87;;;22.10;99.90;;;;;;5000835;28;20465;-61
2023/10/07 10:04:11;;;;;;;4.40;4.00;;;22.10;99.90;;;;;;5000485;28;20455;-59
2023/10/07 10:06:52;;;;;;;4.87;3.77;;;22.10;99.90;;;;;;4999913;28;20458;-59
2023/10/07 10:09:27;;;;;;;4.73;4.30;;;22.10;99.90;;;;;;5001444;28;20482;-60
2023/10/07 10:12:18;;;;;;;4.33;3.90;;;22.10;99.90;;;;;;4997616;28;21381;-61
2023/10/07 10:14:56;;;;;;;4.93;4.50;;;22.10;99.90;;;;;;4996688;28;20524;-64
2023/10/07 10:17:32;;;;;;;4.47;3.63;;;22.10;99.90;;;;;;4995366;28;20451;-67
2023/10/07 10:20:09;;;;;;;3.77;3.20;;;22.10;99.90;;;;;;5001687;28;20452;-64
2023/10/07 10:22:38;;;;;;;4.37;3.97;;;22.10;99.90;;;;;;5000464;28;20462;-68
2023/10/07 10:25:22;;;;;;;5.40;4.17;;;22.10;99.90;;;;;;5002435;28;20459;-67
2023/10/07 10:27:51;;;;;;;4.40;4.07;;;22.20;99.90;;;;;;4996076;28;20589;-65
2023/10/07 10:30:22;;;;;;;4.60;4.20;;;22.20;99.90;;;;;;4995557;28;20458;-66
2023/10/07 10:32:54;;;;;;;4.07;3.77;;;22.20;99.90;;;;;;4996040;28;20592;-64
2023/10/07 10:35:23;;;;;;;3.73;3.33;;;22.20;99.90;;;;;;4998904;28;20463;-64
2023/10/07 10:37:56;;;;;;;7.00;4.13;;;22.20;99.90;;;;;;4997507;28;20469;-64
2023/10/07 10:40:24;;;;;;;4.57;3.50;;;22.20;99.90;;;;;;4994969;28;20478;-64
2023/10/07 10:42:51;;;;;;;3.47;3.17;;;22.30;99.90;;;;;;4998087;28;20460;-63
2023/10/07 10:45:20;;;;;;;4.43;4.13;;;22.30;99.90;;;;;;4994745;28;20484;-63
2023/10/07 10:47:50;;;;;;;4.10;3.70;;;22.30;99.90;;;;;;4999588;28;20584;-64
2023/10/07 10:50:19;;;;;;;4.03;3.27;;;22.30;99.90;;;;;;4994893;28;21656;-62
2023/10/07 10:52:48;;;;;;;3.57;3.23;;;22.30;99.90;;;;;;4997637;28;20541;-63
2023/10/07 10:55:16;;;;;;;4.03;3.63;;;22.40;99.90;;;;;;4997728;28;20498;-62
2023/10/07 10:57:44;;;;;;;3.63;3.30;;;22.40;99.90;;;;;;4997871;28;20462;-61
2023/10/07 11:00:19;;;;;;;3.80;3.50;;;22.40;99.90;;;;;;4994188;28;20464;-66
2023/10/07 11:02:47;;;;;;;5.10;3.87;;;22.40;99.90;;;;;;4994439;28;20561;-61
2023/10/07 11:05:14;;;;;;;6.23;3.87;;;22.50;99.90;;;;;;4996646;28;20491;-59
2023/10/07 11:07:42;;;;;;;4.93;3.17;;;22.50;99.90;;;;;;4999265;28;22522;-61
2023/10/07 11:10:11;;;;;;;3.10;2.77;;;22.50;99.90;;;;;;5000644;28;21299;-64
2023/10/07 11:12:40;;;;;;;3.40;2.70;;;22.50;99.90;;;;;;5000154;28;20480;-61
2023/10/07 11:15:13;;;;;;;4.80;3.00;;;22.50;99.90;;;;;;4993660;28;20556;-62
2023/10/07 11:17:41;;;;;;;5.90;3.67;;;22.50;99.90;;;;;;4996537;28;20919;-63
2023/10/07 11:20:09;;;;;;;5.90;3.27;;;22.50;99.90;;;;;;5000180;28;20461;-60
2023/10/07 11:22:39;;;;;;;8.57;4.20;;;22.50;99.90;;;;;;4996559;28;20466;-62
2023/10/07 11:25:12;;;;;;;5.60;2.80;;;22.50;99.90;;;;;;4994869;28;20562;-67
2023/10/07 11:27:42;;;;;;;3.60;2.70;;;22.50;99.90;;;;;;4999083;28;20482;-62
2023/10/07 11:30:11;;;;;;;3.27;2.47;;;22.60;99.90;;;;;;4997652;28;20897;-64
2023/10/07 11:32:39;;;;;;;6.33;3.37;;;22.60;99.90;;;;;;4998914;28;20459;-63
2023/10/07 11:35:16;;;;;;;6.57;3.27;;;22.60;99.90;;;;;;5000309;28;21387;-60
2023/10/07 11:37:49;;;;;;;3.03;2.53;;;22.60;99.90;;;;;;5000095;28;20972;-62
2023/10/07 11:40:16;;;;;;;4.10;2.70;;;22.60;99.90;;;;;;4998106;28;20482;-61
2023/10/07 11:42:44;;;;;;;3.00;2.70;;;22.60;99.90;;;;;;4991244;28;20466;-62
2023/10/07 11:45:11;;;;;;;2.53;2.20;;;22.60;99.90;;;;;;4997169;28;20474;-63
2023/10/07 11:47:39;;;;;;;2.40;2.20;;;22.60;99.90;;;;;;4996009;28;23304;-63
2023/10/07 11:50:07;;;;;;;5.43;2.90;;;22.70;99.90;;;;;;4998986;28;20458;-59
2023/10/07 11:52:37;;;;;;;3.73;2.10;;;22.70;99.90;;;;;;4995415;28;21179;-62
2023/10/07 11:55:07;;;;;;;4.83;2.80;;;22.70;99.90;;;;;;4994509;28;20571;-62
2023/10/07 11:57:34;;;;;;;3.60;2.03;;;22.70;99.90;;;;;;5000065;28;20467;-62
2023/10/07 12:00:09;;;;;;;5.43;2.80;;;22.70;99.90;;;;;;4995980;28;20484;-61
2023/10/07 12:02:35;;;;;;;7.90;2.47;;;22.70;99.90;;;;;;4994864;28;20543;-60
2023/10/07 12:05:05;;;;;;;5.10;2.70;;;22.70;99.90;;;;;;4999881;28;20990;-60
2023/10/07 12:07:32;;;;;;;7.50;2.90;;;22.80;99.90;;;;;;4998020;28;20544;-61
2023/10/07 12:09:58;;;;;;;3.50;2.33;;;22.80;99.90;;;;;;5000496;28;20463;-61
2023/10/07 12:12:27;;;;;;;3.03;2.03;;;22.80;99.90;;;;;;4995459;28;20467;-61
2023/10/07 12:14:53;;;;;;;6.77;3.00;;;22.80;99.90;;;;;;4990238;28;21097;-64
2023/10/07 12:17:21;;;;;;;4.20;1.83;;;22.80;99.90;;;;;;4997352;28;20528;-67
2023/10/07 12:19:48;;;;;;;3.50;2.50;;;22.80;99.90;;;;;;4996877;28;20469;-62
2023/10/07 12:22:15;;;;;;;2.50;2.30;;;22.80;99.90;;;;;;4999034;28;20543;-64
2023/10/07 12:24:42;;;;;;;2.80;2.40;;;22.90;99.90;;;;;;5000835;28;20462;-64
2023/10/07 12:27:10;;;;;;;2.50;2.30;;;22.80;99.90;;;;;;4993308;28;20563;-66
2023/10/07 12:29:38;;;;;;;3.87;2.23;;;22.80;99.90;;;;;;4992724;28;20998;-65
2023/10/07 12:32:05;;;;;;;6.43;2.50;;;22.80;99.90;;;;;;4998676;28;20470;-69
2023/10/07 12:34:33;;;;;;;3.37;2.43;;;22.80;99.90;;;;;;4999491;28;20458;-66
2023/10/07 12:37:00;;;;;;;3.50;2.27;;;22.90;99.90;;;;;;4998284;28;20831;-65
2023/10/07 12:39:30;;;;;;;4.13;2.10;;;22.90;99.90;;;;;;4998187;28;20466;-64
2023/10/07 12:41:57;;;;;;;5.20;2.90;;;22.90;99.90;;;;;;5002643;28;20456;-64
2023/10/07 12:44:24;;;;;;;3.17;2.20;;;22.90;99.90;;;;;;4994249;28;20883;-67
2023/10/07 12:46:50;;;;;;;3.07;2.60;;;22.90;99.90;;;;;;4998169;28;20463;-65
2023/10/07 12:49:17;;;;;;;9.17;3.17;;;22.90;99.90;;;;;;4999092;28;20482;-65
2023/10/07 12:51:46;;;;;;;8.10;2.67;;;22.90;99.90;;;;;;5002874;28;20462;-64
2023/10/07 12:54:13;;;;;;;5.53;3.00;;;22.90;99.90;;;;;;5001040;28;20466;-62
2023/10/07 12:56:42;;;;;;;3.97;3.37;;;22.90;99.90;;;;;;5001305;28;21057;-62
2023/10/07 12:59:18;;;;;;;2.90;2.60;;;22.90;99.90;;;;;;5002076;28;20462;-63
2023/10/07 13:01:56;;;;;;;2.70;2.30;;;22.90;99.90;;;;;;4999636;28;20540;-63
2023/10/07 13:04:29;;;;;;;3.43;2.50;;;22.90;99.90;;;;;;4999955;28;20458;-64
2023/10/07 13:07:00;;;;;;;3.47;2.80;;;22.90;99.90;;;;;;4997963;28;20549;-61
2023/10/07 13:09:30;;;;;;;4.20;2.33;;;22.90;99.90;;;;;;5001958;28;20532;-61